createdAt,value
2022-11-16T00:04:42.326Z,100351.44
2022-11-16T00:09:48.710Z,100348.81
2022-11-16T00:14:56.232Z,100353.09
2022-11-16T00:20:02.336Z,100357.44
2022-11-16T00:25:10.435Z,100358.25
2022-11-16T00:30:18.905Z,100350.50
2022-11-16T00:35:25.111Z,100342.75
2022-11-16T00:40:31.717Z,100344.47
2022-11-16T00:45:40.067Z,100346.22
2022-11-16T00:50:47.924Z,100336.75
2022-11-16T00:55:54.805Z,100317.78
2022-11-16T01:01:08.601Z,100303.13
2022-11-16T01:06:17.129Z,100285.84
2022-11-16T01:11:40.313Z,100275.50
2022-11-16T01:16:50.656Z,100277.25
2022-11-16T01:21:57.283Z,100292.75
2022-11-16T01:27:03.616Z,100293.59
2022-11-16T01:32:14.806Z,100292.78
2022-11-16T01:37:22.225Z,100313.44
2022-11-16T01:42:33.871Z,100318.59
2022-11-16T01:47:43.559Z,100309.97
2022-11-16T01:53:01.306Z,100285.84
2022-11-16T01:58:19.474Z,100291.00
2022-11-16T02:03:30.797Z,100283.25
2022-11-16T02:09:12.234Z,100290.13
2022-11-16T02:14:46.378Z,100291.00
2022-11-16T02:20:30.888Z,100274.63
2022-11-16T02:25:49.581Z,100266.03
2022-11-16T02:30:59.810Z,100260.88
2022-11-16T02:36:10.674Z,100261.78
2022-11-16T02:41:23.216Z,100246.25
2022-11-16T02:46:37.720Z,100238.47
2022-11-16T02:51:48.842Z,100247.09
2022-11-16T02:56:57.556Z,100231.59
2022-11-16T03:02:19.712Z,100237.66
2022-11-16T03:07:33.967Z,100235.94
2022-11-16T03:12:42.663Z,100219.56
2022-11-16T03:17:52.218Z,100223.81
2022-11-16T03:23:03.896Z,100212.63
2022-11-16T03:28:15.321Z,100222.88
2022-11-16T03:33:29.320Z,100210.81
2022-11-16T03:38:40.030Z,100209.09
2022-11-16T03:43:50.055Z,100216.00
2022-11-16T03:49:03.563Z,100217.66
2022-11-16T03:54:15.437Z,100209.94
2022-11-16T03:59:22.858Z,100213.38
2022-11-16T04:04:47.460Z,100214.22
2022-11-16T04:10:11.480Z,100203.88
2022-11-16T04:15:37.017Z,100208.19
2022-11-16T04:21:04.447Z,100202.19
2022-11-16T04:26:13.582Z,100198.78
2022-11-16T04:31:38.002Z,100195.34
2022-11-16T04:37:07.433Z,100196.13
2022-11-16T04:42:19.402Z,100188.34
2022-11-16T04:47:28.642Z,100185.75
2022-11-16T04:52:36.199Z,100190.06
2022-11-16T04:57:45.123Z,100185.72
2022-11-16T05:03:00.821Z,100174.53
2022-11-16T05:08:09.860Z,100165.91
2022-11-16T05:13:17.423Z,100160.78
2022-11-16T05:18:24.261Z,100165.94
2022-11-16T05:23:49.596Z,100169.38
2022-11-16T05:29:00.804Z,100174.53
2022-11-16T05:34:07.835Z,100177.06
2022-11-16T05:39:15.925Z,100186.56
2022-11-16T05:44:22.638Z,100184.84
2022-11-16T05:49:29.665Z,100191.72
2022-11-16T05:54:40.011Z,100194.28
2022-11-16T05:59:46.494Z,100190.84
2022-11-16T06:04:53.466Z,100197.72
2022-11-16T06:10:02.178Z,100189.06
2022-11-16T06:15:11.411Z,100178.84
2022-11-16T06:20:18.337Z,100177.03
2022-11-16T06:25:27.342Z,100170.13
2022-11-16T06:30:34.168Z,100175.28
2022-11-16T06:35:41.918Z,100170.09
2022-11-16T06:40:52.891Z,100183.91
2022-11-16T06:46:00.441Z,100184.75
2022-11-16T06:51:07.347Z,100172.59
2022-11-16T06:56:17.681Z,100182.09
2022-11-16T07:01:30.162Z,100184.66
2022-11-16T07:06:42.669Z,100177.75
2022-11-16T07:11:50.459Z,100176.94
2022-11-16T07:17:01.040Z,100168.34
2022-11-16T07:22:08.424Z,100159.66
2022-11-16T07:27:16.631Z,100168.28
2022-11-16T07:32:27.399Z,100158.03
2022-11-16T07:37:58.896Z,100155.44
2022-11-16T07:43:06.468Z,100150.28
2022-11-16T07:48:34.287Z,100149.44
2022-11-16T07:53:57.079Z,100152.09
2022-11-16T07:59:06.374Z,100150.41
2022-11-16T08:04:17.821Z,100151.38
2022-11-16T08:09:24.080Z,100167.84
2022-11-16T08:14:33.327Z,100165.34
2022-11-16T08:19:42.558Z,100168.75
2022-11-16T08:24:52.370Z,100165.28
2022-11-16T08:30:00.267Z,100166.16
2022-11-16T08:35:07.412Z,100167.03
2022-11-16T08:40:14.855Z,100179.94
2022-11-16T08:45:23.517Z,100173.03
2022-11-16T08:50:31.400Z,100173.13
2022-11-16T08:55:39.755Z,100152.34
2022-11-16T09:00:47.909Z,100167.03
2022-11-16T09:05:54.564Z,100159.16
2022-11-16T09:11:01.051Z,100159.94
2022-11-16T09:16:09.974Z,100153.84
2022-11-16T09:21:21.069Z,100153.88
2022-11-16T09:26:27.972Z,100148.59
2022-11-16T09:31:37.775Z,100146.91
2022-11-16T09:36:43.889Z,100142.50
2022-11-16T09:42:06.960Z,100139.94
2022-11-16T09:47:22.061Z,100152.91
2022-11-16T09:52:36.110Z,100142.56
2022-11-16T09:57:42.672Z,100133.81
2022-11-16T10:02:59.583Z,100129.50
2022-11-16T10:08:15.383Z,100122.56
2022-11-16T10:13:39.190Z,100126.00
2022-11-16T10:18:57.061Z,100119.88
2022-11-16T10:24:34.442Z,100120.75
2022-11-16T10:29:58.121Z,100116.47
2022-11-16T10:35:14.664Z,100109.44
2022-11-16T10:40:25.731Z,100102.50
2022-11-16T10:45:41.293Z,100095.53
2022-11-16T10:50:51.785Z,100094.63
2022-11-16T10:56:18.017Z,100099.81
2022-11-16T11:01:33.631Z,100104.94
2022-11-16T11:06:41.682Z,100098.06
2022-11-16T11:12:19.166Z,100095.47
2022-11-16T11:17:25.431Z,100093.84
2022-11-16T11:22:34.910Z,100096.53
2022-11-16T11:27:41.367Z,100096.50
2022-11-16T11:32:48.153Z,100093.09
2022-11-16T11:38:04.793Z,100089.69
2022-11-16T11:43:25.553Z,100100.09
2022-11-16T11:48:42.913Z,100103.00
2022-11-16T11:53:57.109Z,100101.50
2022-11-16T11:59:04.847Z,100117.31
2022-11-16T12:04:51.912Z,100127.81
2022-11-16T12:10:10.237Z,100126.19
2022-11-16T12:15:46.991Z,100136.69
2022-11-16T12:21:07.256Z,100119.47
2022-11-16T12:26:25.296Z,100122.94
2022-11-16T12:31:58.046Z,100123.84
2022-11-16T12:37:12.494Z,100137.66
2022-11-16T12:42:36.407Z,100130.81
2022-11-16T12:48:13.660Z,100129.97
2022-11-16T12:53:59.899Z,100131.69
2022-11-16T12:59:32.666Z,100140.34
2022-11-16T13:04:43.596Z,100139.53
2022-11-16T13:09:55.878Z,100155.06
2022-11-16T13:15:06.564Z,100162.84
2022-11-16T13:20:34.883Z,100160.28
2022-11-16T13:25:47.263Z,100164.59
2022-11-16T13:31:06.648Z,100162.03
2022-11-16T13:36:45.689Z,100157.72
2022-11-16T13:42:06.650Z,100168.06
2022-11-16T13:47:26.342Z,100163.78
2022-11-16T13:53:36.363Z,100164.63
2022-11-16T13:58:21.705Z,100163.75
2022-11-16T14:03:38.994Z,100167.19
2022-11-16T14:08:53.604Z,100171.50
2022-11-16T14:14:02.430Z,100164.63
2022-11-16T14:19:55.387Z,100164.63
2022-11-16T14:25:11.191Z,100168.06
2022-11-16T14:30:24.399Z,100162.91
2022-11-16T14:35:37.031Z,100167.19
2022-11-16T14:40:48.465Z,100172.34
2022-11-16T14:45:58.452Z,100174.97
2022-11-16T14:51:12.303Z,100176.66
2022-11-16T14:56:21.036Z,100171.50
2022-11-16T15:01:30.733Z,100163.78
2022-11-16T15:06:45.594Z,100161.19
2022-11-16T15:12:10.947Z,100156.91
2022-11-16T15:17:20.985Z,100163.78
2022-11-16T15:22:30.734Z,100160.34
2022-11-16T15:27:40.724Z,100153.47
2022-11-16T15:32:50.059Z,100155.19
2022-11-16T15:38:15.366Z,100153.47
2022-11-16T15:43:25.776Z,100158.63
2022-11-16T15:48:33.690Z,100147.47
2022-11-16T15:53:44.198Z,100150.91
2022-11-16T15:58:51.169Z,100156.06
2022-11-16T16:04:00.859Z,100162.06
2022-11-16T16:09:21.642Z,100157.75
2022-11-16T16:14:31.425Z,100153.47
2022-11-16T16:19:43.141Z,100156.91
2022-11-16T16:24:51.264Z,100158.63
2022-11-16T16:30:00.667Z,100169.78
2022-11-16T16:35:18.962Z,100168.06
2022-11-16T16:40:27.905Z,100163.78
2022-11-16T16:45:39.261Z,100169.78
2022-11-16T16:50:45.878Z,100157.75
2022-11-16T16:55:54.777Z,100168.03
2022-11-16T17:01:05.310Z,100169.78
2022-11-16T17:06:13.034Z,100164.59
2022-11-16T17:11:21.354Z,100168.91
2022-11-16T17:16:29.082Z,100168.06
2022-11-16T17:21:37.740Z,100179.22
2022-11-16T17:26:48.920Z,100179.22
2022-11-16T17:31:57.693Z,100176.63
2022-11-16T17:37:04.829Z,100162.00
2022-11-16T17:42:13.057Z,100179.22
2022-11-16T17:47:21.991Z,100173.16
2022-11-16T17:52:29.939Z,100179.19
2022-11-16T17:57:39.177Z,100168.00
2022-11-16T18:02:47.265Z,100176.63
2022-11-16T18:07:54.299Z,100176.63
2022-11-16T18:13:02.669Z,100172.34
2022-11-16T18:18:10.405Z,100171.47
2022-11-16T18:23:17.339Z,100171.47
2022-11-16T18:28:27.214Z,100168.03
2022-11-16T18:33:35.365Z,100168.91
2022-11-16T18:38:43.561Z,100169.72
2022-11-16T18:43:55.201Z,100176.63
2022-11-16T18:49:04.246Z,100182.63
2022-11-16T18:54:12.081Z,100180.06
2022-11-16T18:59:21.578Z,100173.19
2022-11-16T19:04:29.462Z,100185.22
2022-11-16T19:09:36.757Z,100181.78
2022-11-16T19:14:46.531Z,100184.38
2022-11-16T19:19:53.835Z,100179.22
2022-11-16T19:25:05.834Z,100184.38
2022-11-16T19:30:21.659Z,100177.50
2022-11-16T19:35:29.169Z,100176.63
2022-11-16T19:40:39.909Z,100187.81
2022-11-16T19:45:49.351Z,100181.78
2022-11-16T19:50:57.084Z,100174.06
2022-11-16T19:56:05.077Z,100178.34
2022-11-16T20:01:17.815Z,100188.66
2022-11-16T20:06:30.948Z,100182.66
2022-11-16T20:11:40.631Z,100189.53
2022-11-16T20:16:52.061Z,100192.94
2022-11-16T20:22:00.656Z,100184.34
2022-11-16T20:27:09.294Z,100194.66
2022-11-16T20:32:18.847Z,100206.72
2022-11-16T20:37:26.783Z,100186.94
2022-11-16T20:42:34.425Z,100186.94
2022-11-16T20:47:42.935Z,100180.94
2022-11-16T20:52:52.900Z,100181.78
2022-11-16T20:58:00.195Z,100186.06
2022-11-16T21:03:08.839Z,100181.78
2022-11-16T21:08:16.485Z,100192.06
2022-11-16T21:13:39.800Z,100189.50
2022-11-16T21:18:50.650Z,100191.22
2022-11-16T21:23:57.311Z,100192.97
2022-11-16T21:29:04.187Z,100195.53
2022-11-16T21:34:12.389Z,100186.94
2022-11-16T21:39:19.185Z,100175.75
2022-11-16T21:44:25.695Z,100179.22
2022-11-16T21:49:33.379Z,100174.06
2022-11-16T21:54:49.070Z,100180.06
2022-11-16T21:59:55.908Z,100183.47
2022-11-16T22:05:20.967Z,100176.63
2022-11-16T22:10:27.237Z,100174.03
2022-11-16T22:15:33.564Z,100174.03
2022-11-16T22:20:41.586Z,100173.19
2022-11-16T22:25:47.816Z,100179.22
2022-11-16T22:31:02.914Z,100182.63
2022-11-16T22:36:13.612Z,100177.50
2022-11-16T22:41:20.440Z,100184.34
2022-11-16T22:46:26.873Z,100186.94
2022-11-16T22:51:35.436Z,100186.97
2022-11-16T22:56:41.880Z,100173.22
2022-11-16T23:01:48.033Z,100175.78
2022-11-16T23:06:55.524Z,100164.59
2022-11-16T23:12:18.833Z,100176.63
2022-11-16T23:17:24.983Z,100180.09
2022-11-16T23:22:49.626Z,100178.34
2022-11-16T23:28:01.885Z,100191.25
2022-11-16T23:33:08.825Z,100183.53
2022-11-16T23:38:16.903Z,100186.09
2022-11-16T23:43:40.814Z,100183.50
2022-11-16T23:48:47.035Z,100183.53
2022-11-16T23:53:56.175Z,100182.66
2022-11-16T23:59:01.978Z,100178.38
